createdAt,value
2018-12-10T00:01:05.451Z,99.90
2018-12-10T00:03:40.252Z,99.90
2018-12-10T00:06:18.592Z,99.90
2018-12-10T00:08:53.254Z,99.90
2018-12-10T00:11:27.681Z,99.90
2018-12-10T00:14:01.975Z,99.90
2018-12-10T00:16:36.113Z,99.70
2018-12-10T00:19:10.689Z,99.80
2018-12-10T00:21:44.503Z,99.80
2018-12-10T00:24:18.470Z,99.90
2018-12-10T00:26:52.294Z,99.90
2018-12-10T00:29:26.332Z,99.90
2018-12-10T00:32:04.310Z,99.90
2018-12-10T00:34:38.782Z,99.90
2018-12-10T00:37:12.823Z,99.90
2018-12-10T00:39:46.793Z,99.90
2018-12-10T00:42:21.131Z,99.90
2018-12-10T00:44:55.231Z,99.90
2018-12-10T00:47:33.818Z,99.90
2018-12-10T00:50:12.139Z,99.90
2018-12-10T00:52:46.240Z,99.90
2018-12-10T00:55:24.070Z,99.90
2018-12-10T00:57:58.301Z,99.90
2018-12-10T01:00:32.643Z,99.90
2018-12-10T01:03:10.771Z,99.90
2018-12-10T01:05:48.934Z,99.90
2018-12-10T01:16:01.359Z,99.90
2018-12-10T01:18:39.572Z,99.90
2018-12-10T01:21:17.709Z,99.90
2018-12-10T01:23:51.818Z,99.90
2018-12-10T01:26:26.050Z,99.90
2018-12-10T01:29:03.881Z,99.90
2018-12-10T01:31:38.137Z,99.90
2018-12-10T01:34:12.256Z,99.90
2018-12-10T01:36:46.489Z,99.90
2018-12-10T01:39:24.765Z,99.90
2018-12-10T01:41:58.930Z,99.90
2018-12-10T01:44:32.926Z,99.90
2018-12-10T01:47:11.221Z,99.90
2018-12-10T01:49:45.510Z,99.90
2018-12-10T01:52:19.560Z,99.90
2018-12-10T01:54:53.811Z,99.90
2018-12-10T01:57:28.114Z,99.90
2018-12-10T02:00:06.908Z,99.90
2018-12-10T02:02:41.459Z,99.90
2018-12-10T02:05:15.721Z,99.90
2018-12-10T02:07:53.955Z,99.90
2018-12-10T02:10:27.826Z,99.90
2018-12-10T02:13:01.852Z,99.90
2018-12-10T02:15:35.828Z,99.90
2018-12-10T02:18:09.857Z,99.90
2018-12-10T02:20:43.741Z,99.90
2018-12-10T02:23:17.995Z,99.90
2018-12-10T02:25:52.057Z,99.90
2018-12-10T02:28:35.322Z,99.90
2018-12-10T02:31:09.178Z,99.90
2018-12-10T02:33:43.274Z,99.90
2018-12-10T02:36:17.532Z,99.90
2018-12-10T02:38:51.618Z,99.90
2018-12-10T02:41:29.789Z,99.90
2018-12-10T02:44:04.259Z,99.90
2018-12-10T02:46:42.988Z,99.90
2018-12-10T02:49:17.717Z,99.70
2018-12-10T02:51:51.961Z,99.70
2018-12-10T02:54:25.922Z,99.10
2018-12-10T02:56:59.873Z,99.20
2018-12-10T02:59:33.954Z,99.10
2018-12-10T03:02:12.213Z,98.90
2018-12-10T03:04:50.370Z,99.00
2018-12-10T03:07:28.424Z,99.10
2018-12-10T03:10:02.314Z,99.10
2018-12-10T03:12:36.399Z,99.20
2018-12-10T03:15:10.231Z,99.10
2018-12-10T03:17:44.139Z,99.10
2018-12-10T03:20:18.067Z,99.00
2018-12-10T03:22:56.123Z,99.00
2018-12-10T03:25:29.972Z,98.80
2018-12-10T03:28:03.924Z,98.70
2018-12-10T03:30:38.433Z,98.80
2018-12-10T03:33:12.424Z,98.30
2018-12-10T03:35:46.670Z,98.20
2018-12-10T03:38:20.557Z,98.20
2018-12-10T03:40:54.944Z,98.20
2018-12-10T03:43:28.786Z,97.80
2018-12-10T03:46:03.069Z,97.70
2018-12-10T03:48:38.254Z,97.50
2018-12-10T03:51:12.524Z,97.70
2018-12-10T03:53:50.703Z,97.60
2018-12-10T03:56:24.747Z,97.40
2018-12-10T03:58:59.381Z,97.30
2018-12-10T04:01:33.680Z,97.20
2018-12-10T04:04:07.985Z,97.00
2018-12-10T04:06:46.086Z,96.90
2018-12-10T04:09:20.198Z,97.10
2018-12-10T04:11:58.096Z,97.10
2018-12-10T04:14:36.086Z,97.20
2018-12-10T04:17:10.178Z,97.40
2018-12-10T04:19:44.214Z,97.30
2018-12-10T04:24:51.261Z,97.60
2018-12-10T04:27:25.285Z,97.70
2018-12-10T04:30:03.357Z,97.80
2018-12-10T04:32:37.725Z,98.00
2018-12-10T04:35:11.783Z,98.20
2018-12-10T04:37:45.698Z,98.50
2018-12-10T04:40:19.904Z,98.50
2018-12-10T04:42:55.088Z,98.50
2018-12-10T04:45:29.305Z,98.60
2018-12-10T04:48:03.602Z,98.50
2018-12-10T04:50:37.886Z,98.50
2018-12-10T04:53:11.990Z,98.60
2018-12-10T04:55:46.106Z,98.60
2018-12-10T04:58:20.275Z,98.50
2018-12-10T05:00:54.514Z,98.50
2018-12-10T05:03:28.798Z,98.70
2018-12-10T05:06:03.100Z,98.70
2018-12-10T05:08:37.234Z,98.60
2018-12-10T05:11:11.080Z,98.50
2018-12-10T05:13:45.063Z,98.60
2018-12-10T05:16:19.118Z,98.60
2018-12-10T05:18:57.067Z,98.40
2018-12-10T05:21:31.158Z,98.30
2018-12-10T05:39:21.644Z,97.50
2018-12-10T05:41:55.830Z,97.60
2018-12-10T05:44:29.898Z,97.70
2018-12-10T05:47:04.094Z,98.20
2018-12-10T05:49:38.013Z,98.10
2018-12-10T05:52:12.494Z,97.90
2018-12-10T05:54:46.297Z,98.70
2018-12-10T05:57:20.496Z,98.20
2018-12-10T05:59:54.672Z,98.20
2018-12-10T06:02:28.798Z,98.70
2018-12-10T06:05:02.716Z,99.90
2018-12-10T06:07:40.737Z,99.90
2018-12-10T06:10:14.983Z,98.60
2018-12-10T06:12:53.035Z,99.20
2018-12-10T06:15:27.315Z,98.40
2018-12-10T06:18:01.404Z,98.60
2018-12-10T06:20:35.463Z,97.30
2018-12-10T06:23:09.388Z,96.40
2018-12-10T06:25:43.753Z,96.70
2018-12-10T06:28:18.460Z,96.70
2018-12-10T06:30:52.683Z,96.50
2018-12-10T06:33:27.233Z,96.20
2018-12-10T06:36:01.117Z,96.00
2018-12-10T06:38:35.245Z,96.00
2018-12-10T06:51:24.900Z,96.70
2018-12-10T06:53:59.751Z,96.90
2018-12-10T06:56:33.648Z,97.40
2018-12-10T06:59:07.814Z,98.20
2018-12-10T07:01:42.283Z,98.10
2018-12-10T07:04:16.938Z,99.10
2018-12-10T07:06:54.886Z,99.90
2018-12-10T07:09:35.973Z,99.30
2018-12-10T07:12:13.967Z,98.80
2018-12-10T07:14:51.805Z,98.10
2018-12-10T07:17:25.905Z,97.50
2018-12-10T07:20:00.495Z,96.70
2018-12-10T07:22:34.304Z,96.10
2018-12-10T07:25:08.578Z,95.10
2018-12-10T07:27:43.008Z,93.50
2018-12-10T07:30:20.902Z,92.50
2018-12-10T07:32:59.105Z,91.60
2018-12-10T07:35:36.327Z,90.00
2018-12-10T07:38:10.524Z,87.60
2018-12-10T07:40:44.720Z,85.80
2018-12-10T07:43:18.691Z,83.00
2018-12-10T07:45:52.546Z,81.20
2018-12-10T07:48:26.855Z,78.70
2018-12-10T07:51:00.797Z,75.50
2018-12-10T07:53:34.803Z,74.60
2018-12-10T07:56:09.064Z,73.90
2018-12-10T07:58:43.240Z,73.10
2018-12-10T08:01:17.248Z,72.40
2018-12-10T08:03:51.646Z,69.50
2018-12-10T08:06:26.376Z,67.50
2018-12-10T08:09:06.930Z,68.90
2018-12-10T08:11:45.561Z,67.80
2018-12-10T08:14:19.863Z,66.60
2018-12-10T08:16:53.991Z,64.50
2018-12-10T08:19:32.462Z,65.30
2018-12-10T08:22:06.708Z,65.30
2018-12-10T08:24:44.625Z,65.60
2018-12-10T08:27:18.858Z,66.40
2018-12-10T08:29:53.490Z,66.60
2018-12-10T08:32:31.495Z,68.30
2018-12-10T08:35:10.162Z,69.60
2018-12-10T08:37:44.935Z,71.20
2018-12-10T08:40:19.082Z,70.30
2018-12-10T08:42:57.389Z,68.80
2018-12-10T08:45:31.585Z,67.10
2018-12-10T08:48:05.570Z,68.00
2018-12-10T08:50:39.673Z,71.00
2018-12-10T08:53:14.074Z,72.70
2018-12-10T09:06:00.644Z,65.70
2018-12-10T09:08:34.408Z,61.20
2018-12-10T09:11:12.753Z,58.50
2018-12-10T09:13:46.765Z,58.90
2018-12-10T09:19:18.625Z,59.50
2018-12-10T09:21:53.262Z,59.00
2018-12-10T09:24:27.601Z,57.60
2018-12-10T09:27:01.772Z,57.40
2018-12-10T09:29:36.028Z,56.10
2018-12-10T09:32:10.264Z,55.50
2018-12-10T09:34:44.458Z,54.10
2018-12-10T09:37:19.187Z,54.40
2018-12-10T09:39:53.190Z,54.20
2018-12-10T09:42:27.221Z,53.50
2018-12-10T09:45:01.556Z,54.00
2018-12-10T09:47:35.626Z,56.80
2018-12-10T09:50:09.993Z,57.90
2018-12-10T09:52:44.646Z,59.00
2018-12-10T09:55:18.995Z,59.80
2018-12-10T09:57:53.117Z,59.20
2018-12-10T10:00:27.462Z,59.10
2018-12-10T10:03:01.710Z,59.50
2018-12-10T10:05:40.226Z,59.30
2018-12-10T10:08:18.435Z,60.20
2018-12-10T10:10:56.354Z,59.10
2018-12-10T10:13:30.373Z,59.10
2018-12-10T10:16:04.530Z,59.80
2018-12-10T10:18:38.850Z,59.30
2018-12-10T10:21:12.930Z,60.50
2018-12-10T10:23:47.154Z,62.20
2018-12-10T10:26:22.055Z,62.10
2018-12-10T10:28:56.071Z,62.70
2018-12-10T10:31:35.211Z,63.90
2018-12-10T10:34:10.022Z,65.40
2018-12-10T10:36:44.656Z,64.10
2018-12-10T10:39:19.327Z,64.60
2018-12-10T10:41:57.521Z,64.80
2018-12-10T10:44:31.454Z,68.30
2018-12-10T10:47:06.444Z,68.50
2018-12-10T10:49:41.708Z,68.40
2018-12-10T10:52:16.005Z,69.50
2018-12-10T10:54:50.317Z,69.00
2018-12-10T10:57:24.235Z,68.50
2018-12-10T10:59:58.530Z,69.10
2018-12-10T11:02:37.807Z,68.90
2018-12-10T11:05:16.979Z,69.30
2018-12-10T11:15:29.765Z,68.30
2018-12-10T11:18:03.781Z,67.90
2018-12-10T11:20:38.015Z,68.10
2018-12-10T11:23:12.751Z,68.00
2018-12-10T11:25:46.994Z,67.90
2018-12-10T11:28:21.047Z,68.00
2018-12-10T11:30:55.232Z,69.40
2018-12-10T11:33:29.790Z,68.90
2018-12-10T11:36:07.943Z,69.30
2018-12-10T11:38:42.212Z,69.60
2018-12-10T11:41:16.032Z,70.10
2018-12-10T11:43:50.032Z,67.80
2018-12-10T11:46:24.590Z,67.20
2018-12-10T11:48:58.514Z,66.30
2018-12-10T11:51:36.784Z,67.30
2018-12-10T11:54:10.779Z,66.60
2018-12-10T11:56:45.585Z,67.10
2018-12-10T11:59:20.127Z,68.00
2018-12-10T12:01:54.272Z,69.20
2018-12-10T12:04:28.291Z,69.20
2018-12-10T12:07:02.631Z,68.60
2018-12-10T12:09:41.498Z,68.80
2018-12-10T12:12:19.863Z,68.90
2018-12-10T12:14:54.272Z,69.00
2018-12-10T12:17:29.073Z,69.40
2018-12-10T12:20:03.154Z,68.70
2018-12-10T12:22:37.305Z,69.00
2018-12-10T12:25:11.494Z,70.10
2018-12-10T12:27:49.758Z,70.30
2018-12-10T12:30:28.223Z,70.50
2018-12-10T12:33:02.390Z,70.00
2018-12-10T12:35:41.172Z,71.00
2018-12-10T12:38:15.843Z,71.60
2018-12-10T12:40:49.914Z,71.50
2018-12-10T12:43:24.660Z,71.30
2018-12-10T12:45:58.734Z,71.90
2018-12-10T12:48:32.839Z,71.90
2018-12-10T12:51:07.434Z,72.70
2018-12-10T12:53:41.445Z,72.80
2018-12-10T12:56:15.398Z,72.50
2018-12-10T12:58:49.474Z,73.00
2018-12-10T13:01:28.009Z,73.10
2018-12-10T13:04:02.662Z,72.50
2018-12-10T13:06:36.803Z,69.90
2018-12-10T13:09:11.126Z,70.00
2018-12-10T13:11:49.625Z,69.80
2018-12-10T13:14:24.414Z,68.70
2018-12-10T13:37:21.052Z,71.60
2018-12-10T13:39:56.366Z,72.00
2018-12-10T13:42:31.713Z,71.40
2018-12-10T13:45:06.545Z,71.60
2018-12-10T13:47:41.231Z,72.90
2018-12-10T13:50:19.649Z,73.60
2018-12-10T13:53:01.164Z,74.00
2018-12-10T13:55:40.004Z,73.60
2018-12-10T13:58:19.076Z,73.30
2018-12-10T14:00:54.015Z,72.60
2018-12-10T14:03:32.555Z,72.90
2018-12-10T14:06:06.997Z,74.00
2018-12-10T14:08:41.068Z,74.30
2018-12-10T14:11:15.461Z,74.70
2018-12-10T14:13:50.179Z,75.30
2018-12-10T14:16:28.296Z,75.60
2018-12-10T14:19:06.867Z,76.00
2018-12-10T14:21:41.601Z,76.10
2018-12-10T14:24:15.833Z,76.60
2018-12-10T14:26:50.801Z,79.90
2018-12-10T14:29:28.893Z,82.10
2018-12-10T14:32:02.958Z,82.70
2018-12-10T14:34:38.116Z,83.50
2018-12-10T14:37:16.105Z,83.90
2018-12-10T14:39:50.291Z,84.20
2018-12-10T14:42:26.087Z,85.00
2018-12-10T14:45:00.483Z,85.00
2018-12-10T14:47:34.714Z,85.50
2018-12-10T14:50:09.898Z,85.60
2018-12-10T14:52:44.176Z,85.10
2018-12-10T14:55:18.430Z,85.20
2018-12-10T14:57:52.590Z,85.30
2018-12-10T15:00:26.643Z,85.70
2018-12-10T15:03:00.924Z,86.10
2018-12-10T15:05:34.946Z,87.00
2018-12-10T15:08:08.820Z,86.70
2018-12-10T15:10:47.250Z,87.10
2018-12-10T15:13:21.471Z,87.60
2018-12-10T15:15:55.904Z,88.70
2018-12-10T15:18:30.566Z,88.10
2018-12-10T15:21:04.544Z,88.30
2018-12-10T15:23:39.380Z,88.50
2018-12-10T15:26:14.260Z,88.10
2018-12-10T15:28:52.463Z,88.10
2018-12-10T15:31:26.333Z,88.20
2018-12-10T15:34:00.585Z,88.70
2018-12-10T15:36:34.570Z,88.80
2018-12-10T15:39:08.879Z,88.90
2018-12-10T15:49:22.030Z,88.80
2018-12-10T15:51:56.890Z,89.50
2018-12-10T15:54:30.970Z,90.10
2018-12-10T15:57:05.350Z,89.30
2018-12-10T15:59:40.236Z,89.30
2018-12-10T16:02:19.078Z,89.40
2018-12-10T16:04:53.107Z,89.50
2018-12-10T16:07:27.138Z,88.90
2018-12-10T16:10:08.082Z,88.70
2018-12-10T16:12:42.897Z,88.70
2018-12-10T16:15:16.759Z,88.90
2018-12-10T16:17:51.135Z,88.80
2018-12-10T16:20:24.984Z,89.00
2018-12-10T16:22:59.193Z,89.40
2018-12-10T16:25:37.351Z,89.10
2018-12-10T16:28:11.978Z,89.30
2018-12-10T16:30:51.163Z,89.00
2018-12-10T16:33:29.237Z,89.20
2018-12-10T16:36:04.026Z,89.50
2018-12-10T16:38:38.874Z,90.30
2018-12-10T16:41:13.313Z,94.20
2018-12-10T16:43:47.853Z,92.10
2018-12-10T16:46:22.238Z,90.70
2018-12-10T16:48:56.878Z,90.30
2018-12-10T16:56:40.887Z,89.60
2018-12-10T16:59:15.750Z,89.60
2018-12-10T17:01:50.791Z,89.80
2018-12-10T17:04:25.020Z,89.10
2018-12-10T17:07:00.628Z,88.90
2018-12-10T17:09:39.892Z,89.40
2018-12-10T17:12:14.554Z,89.30
2018-12-10T17:14:49.338Z,89.20
2018-12-10T17:17:23.657Z,89.40
2018-12-10T17:19:58.479Z,89.50
2018-12-10T17:22:32.613Z,89.20
2018-12-10T17:25:10.694Z,89.30
2018-12-10T17:27:44.911Z,89.30
2018-12-10T17:30:19.128Z,89.30
2018-12-10T17:32:53.360Z,89.20
2018-12-10T17:35:28.184Z,89.50
2018-12-10T17:38:02.701Z,89.10
2018-12-10T17:40:37.006Z,89.50
2018-12-10T17:43:11.986Z,89.90
2018-12-10T17:45:46.704Z,89.80
2018-12-10T17:48:22.060Z,90.00
2018-12-10T17:50:56.214Z,90.20
2018-12-10T17:53:34.374Z,90.30
2018-12-10T17:56:08.514Z,90.20
2018-12-10T17:58:46.769Z,90.20
2018-12-10T18:01:21.758Z,90.40
2018-12-10T18:03:56.908Z,90.40
2018-12-10T18:06:31.238Z,90.40
2018-12-10T18:09:08.476Z,90.50
2018-12-10T18:11:46.563Z,90.40
2018-12-10T18:14:24.753Z,90.30
2018-12-10T18:16:58.855Z,90.30
2018-12-10T18:19:37.223Z,90.40
2018-12-10T18:22:12.135Z,90.20
2018-12-10T18:24:46.430Z,90.00
2018-12-10T18:27:24.504Z,90.00
2018-12-10T18:29:59.513Z,90.00
2018-12-10T18:32:34.511Z,90.10
2018-12-10T18:35:11.148Z,90.00
2018-12-10T18:37:46.342Z,90.10
2018-12-10T18:40:21.060Z,90.30
2018-12-10T18:42:55.970Z,90.50
2018-12-10T18:45:30.780Z,90.50
2018-12-10T18:48:05.633Z,90.40
2018-12-10T18:50:40.320Z,90.50
2018-12-10T18:53:14.294Z,90.60
2018-12-10T18:55:48.230Z,90.50
2018-12-10T18:58:22.752Z,90.50
2018-12-10T19:00:57.573Z,90.50
2018-12-10T19:03:31.754Z,90.80
2018-12-10T19:06:06.545Z,90.80
2018-12-10T19:08:46.144Z,90.80
2018-12-10T19:11:20.784Z,90.80
2018-12-10T19:13:59.754Z,91.00
2018-12-10T19:16:33.845Z,91.40
2018-12-10T19:19:12.338Z,91.80
2018-12-10T19:21:46.654Z,92.00
2018-12-10T19:24:21.114Z,92.90
2018-12-10T19:26:56.199Z,92.60
2018-12-10T19:29:31.199Z,92.10
2018-12-10T19:32:05.745Z,92.70
2018-12-10T19:34:40.901Z,91.80
2018-12-10T19:37:15.786Z,92.00
2018-12-10T19:39:49.784Z,94.90
2018-12-10T19:42:24.290Z,95.60
2018-12-10T19:44:59.005Z,96.00
2018-12-10T19:47:33.180Z,94.60
2018-12-10T19:50:10.870Z,94.10
2018-12-10T19:52:45.510Z,92.70
2018-12-10T19:55:19.848Z,92.80
2018-12-10T19:57:54.763Z,92.80
2018-12-10T20:00:29.268Z,92.30
2018-12-10T20:03:05.148Z,92.50
2018-12-10T20:05:45.691Z,92.40
2018-12-10T20:08:19.924Z,92.70
2018-12-10T20:10:55.008Z,93.00
2018-12-10T20:13:30.046Z,93.20
2018-12-10T20:16:05.129Z,93.40
2018-12-10T20:18:39.629Z,93.60
2018-12-10T20:21:14.425Z,93.80
2018-12-10T20:23:48.584Z,93.90
2018-12-10T20:26:23.034Z,93.90
2018-12-10T20:28:57.308Z,94.10
2018-12-10T20:31:32.222Z,94.20
2018-12-10T20:34:10.352Z,96.60
2018-12-10T20:36:44.781Z,95.10
2018-12-10T20:39:18.817Z,94.50
2018-12-10T20:41:53.049Z,94.30
2018-12-10T20:44:27.057Z,94.10
2018-12-10T20:47:01.306Z,94.20
2018-12-10T20:49:36.223Z,93.90
2018-12-10T20:52:14.360Z,94.20
2018-12-10T20:54:49.650Z,94.30
2018-12-10T20:57:23.817Z,94.70
2018-12-10T20:59:58.261Z,94.30
2018-12-10T21:02:33.065Z,94.10
2018-12-10T21:12:45.940Z,94.10
2018-12-10T21:15:24.075Z,94.40
2018-12-10T21:17:58.871Z,95.00
2018-12-10T21:20:33.495Z,94.90
2018-12-10T21:23:07.954Z,94.80
2018-12-10T21:25:42.190Z,94.80
2018-12-10T21:28:16.408Z,94.90
2018-12-10T21:30:51.244Z,95.00
2018-12-10T21:33:29.724Z,95.00
2018-12-10T21:36:04.639Z,95.00
2018-12-10T21:38:39.066Z,95.30
2018-12-10T21:41:13.351Z,95.50
2018-12-10T21:43:47.691Z,95.70
2018-12-10T21:46:21.904Z,95.90
2018-12-10T21:48:56.825Z,96.10
2018-12-10T21:51:34.870Z,96.20
2018-12-10T21:54:09.751Z,96.10
2018-12-10T21:56:44.161Z,96.00
2018-12-10T21:59:18.536Z,96.00
2018-12-10T22:01:53.481Z,96.00
2018-12-10T22:04:32.363Z,97.50
2018-12-10T22:07:06.874Z,98.60
2018-12-10T22:09:41.033Z,98.70
2018-12-10T22:14:48.217Z,97.30
2018-12-10T22:17:23.374Z,96.40
2018-12-10T22:19:58.420Z,96.60
2018-12-10T22:22:32.525Z,96.90
2018-12-10T22:25:07.140Z,97.10
2018-12-10T22:27:41.618Z,97.00
2018-12-10T22:30:16.044Z,96.90
2018-12-10T22:32:51.076Z,96.70
2018-12-10T22:35:25.585Z,96.70
2018-12-10T22:38:00.237Z,96.80
2018-12-10T22:40:34.382Z,96.70
2018-12-10T22:43:08.586Z,96.40
2018-12-10T22:45:42.664Z,96.30
2018-12-10T22:48:16.847Z,96.50
2018-12-10T22:50:50.734Z,96.90
2018-12-10T22:53:25.660Z,97.50
2018-12-10T22:56:00.626Z,96.90
2018-12-10T22:58:35.413Z,96.90
2018-12-10T23:01:10.132Z,97.10
2018-12-10T23:03:49.232Z,97.00
2018-12-10T23:06:23.193Z,96.80
2018-12-10T23:08:57.444Z,96.80
2018-12-10T23:11:35.592Z,96.60
2018-12-10T23:14:10.051Z,96.50
2018-12-10T23:16:45.042Z,96.50
2018-12-10T23:19:23.934Z,96.30
2018-12-10T23:21:57.971Z,96.20
2018-12-10T23:24:32.713Z,96.20
2018-12-10T23:27:06.873Z,96.30
2018-12-10T23:29:45.606Z,96.40
2018-12-10T23:32:23.878Z,96.50
2018-12-10T23:34:57.963Z,96.60
2018-12-10T23:37:32.302Z,96.30
2018-12-10T23:40:07.198Z,96.50
2018-12-10T23:42:45.391Z,96.20
2018-12-10T23:45:20.068Z,96.20
2018-12-10T23:47:57.930Z,96.00
2018-12-10T23:50:32.512Z,96.00
2018-12-10T23:53:07.347Z,96.10
2018-12-10T23:55:41.292Z,96.40
2018-12-10T23:58:15.396Z,96.50
